sensor_id;sensor_type;location;lat;lon;timestamp;P1;durP1;ratioP1;P2;durP2;ratioP2
75550;SDS011;65071;53.082;18.218;2023-11-22T00:00:09;11.20;;;4.60;;
75550;SDS011;65071;53.082;18.218;2023-11-22T00:02:56;12.30;;;4.20;;
75550;SDS011;65071;53.082;18.218;2023-11-22T00:05:23;12.20;;;5.00;;
75550;SDS011;65071;53.082;18.218;2023-11-22T00:07:50;10.90;;;4.30;;
75550;SDS011;65071;53.082;18.218;2023-11-22T00:10:17;11.60;;;4.80;;
75550;SDS011;65071;53.082;18.218;2023-11-22T00:12:44;9.80;;;3.70;;
75550;SDS011;65071;53.082;18.218;2023-11-22T00:15:11;7.40;;;3.40;;
75550;SDS011;65071;53.082;18.218;2023-11-22T00:17:38;7.10;;;2.70;;
75550;SDS011;65071;53.082;18.218;2023-11-22T00:20:05;11.10;;;4.70;;
75550;SDS011;65071;53.082;18.218;2023-11-22T00:22:32;10.10;;;4.40;;
75550;SDS011;65071;53.082;18.218;2023-11-22T00:24:59;9.90;;;4.50;;
75550;SDS011;65071;53.082;18.218;2023-11-22T00:27:28;7.40;;;3.20;;
75550;SDS011;65071;53.082;18.218;2023-11-22T00:29:56;10.30;;;4.20;;
75550;SDS011;65071;53.082;18.218;2023-11-22T00:32:23;8.40;;;3.80;;
75550;SDS011;65071;53.082;18.218;2023-11-22T00:34:50;11.90;;;4.60;;
75550;SDS011;65071;53.082;18.218;2023-11-22T00:37:16;6.80;;;2.70;;
75550;SDS011;65071;53.082;18.218;2023-11-22T00:39:43;11.90;;;5.10;;
75550;SDS011;65071;53.082;18.218;2023-11-22T00:42:09;9.30;;;3.20;;
75550;SDS011;65071;53.082;18.218;2023-11-22T00:44:36;11.10;;;4.90;;
75550;SDS011;65071;53.082;18.218;2023-11-22T00:47:03;7.60;;;3.00;;
75550;SDS011;65071;53.082;18.218;2023-11-22T00:49:31;9.40;;;4.40;;
75550;SDS011;65071;53.082;18.218;2023-11-22T00:51:57;11.60;;;4.70;;
75550;SDS011;65071;53.082;18.218;2023-11-22T00:54:24;6.50;;;3.30;;
75550;SDS011;65071;53.082;18.218;2023-11-22T00:56:52;4.40;;;2.00;;
75550;SDS011;65071;53.082;18.218;2023-11-22T00:59:18;9.50;;;3.80;;
75550;SDS011;65071;53.082;18.218;2023-11-22T01:01:45;8.50;;;4.00;;
75550;SDS011;65071;53.082;18.218;2023-11-22T01:04:12;8.40;;;2.70;;
75550;SDS011;65071;53.082;18.218;2023-11-22T01:06:40;13.60;;;4.80;;
75550;SDS011;65071;53.082;18.218;2023-11-22T01:09:07;7.20;;;3.00;;
75550;SDS011;65071;53.082;18.218;2023-11-22T01:11:34;11.40;;;4.90;;
75550;SDS011;65071;53.082;18.218;2023-11-22T01:14:01;5.70;;;2.40;;
75550;SDS011;65071;53.082;18.218;2023-11-22T01:16:28;11.10;;;4.50;;
75550;SDS011;65071;53.082;18.218;2023-11-22T01:18:55;14.30;;;4.80;;
75550;SDS011;65071;53.082;18.218;2023-11-22T01:21:21;14.30;;;5.70;;
75550;SDS011;65071;53.082;18.218;2023-11-22T01:23:48;12.10;;;5.50;;
75550;SDS011;65071;53.082;18.218;2023-11-22T01:26:15;10.40;;;4.40;;
75550;SDS011;65071;53.082;18.218;2023-11-22T01:28:43;8.90;;;3.50;;
75550;SDS011;65071;53.082;18.218;2023-11-22T01:31:11;14.70;;;5.20;;
75550;SDS011;65071;53.082;18.218;2023-11-22T01:33:39;11.60;;;4.20;;
75550;SDS011;65071;53.082;18.218;2023-11-22T01:36:05;3.60;;;1.80;;
75550;SDS011;65071;53.082;18.218;2023-11-22T01:38:32;10.80;;;4.20;;
75550;SDS011;65071;53.082;18.218;2023-11-22T01:40:58;14.70;;;5.30;;
75550;SDS011;65071;53.082;18.218;2023-11-22T01:43:26;6.00;;;2.50;;
75550;SDS011;65071;53.082;18.218;2023-11-22T01:45:54;11.00;;;4.70;;
75550;SDS011;65071;53.082;18.218;2023-11-22T01:48:21;9.80;;;4.60;;
75550;SDS011;65071;53.082;18.218;2023-11-22T01:50:48;13.30;;;5.50;;
75550;SDS011;65071;53.082;18.218;2023-11-22T01:53:15;10.50;;;4.30;;
75550;SDS011;65071;53.082;18.218;2023-11-22T01:55:43;10.20;;;4.40;;
75550;SDS011;65071;53.082;18.218;2023-11-22T01:58:12;13.50;;;5.40;;
75550;SDS011;65071;53.082;18.218;2023-11-22T02:00:43;15.40;;;6.10;;
75550;SDS011;65071;53.082;18.218;2023-11-22T02:03:14;11.30;;;4.60;;
75550;SDS011;65071;53.082;18.218;2023-11-22T02:05:41;12.90;;;5.20;;
75550;SDS011;65071;53.082;18.218;2023-11-22T02:08:09;14.70;;;5.40;;
75550;SDS011;65071;53.082;18.218;2023-11-22T02:10:36;14.30;;;6.10;;
75550;SDS011;65071;53.082;18.218;2023-11-22T02:13:03;14.60;;;5.60;;
75550;SDS011;65071;53.082;18.218;2023-11-22T02:18:00;12.50;;;4.20;;
75550;SDS011;65071;53.082;18.218;2023-11-22T02:20:28;13.70;;;5.20;;
75550;SDS011;65071;53.082;18.218;2023-11-22T02:22:56;15.30;;;5.70;;
75550;SDS011;65071;53.082;18.218;2023-11-22T02:25:23;12.10;;;4.70;;
75550;SDS011;65071;53.082;18.218;2023-11-22T02:27:50;14.20;;;5.70;;
75550;SDS011;65071;53.082;18.218;2023-11-22T02:30:16;16.10;;;6.10;;
75550;SDS011;65071;53.082;18.218;2023-11-22T02:32:43;13.50;;;5.50;;
75550;SDS011;65071;53.082;18.218;2023-11-22T02:35:10;14.40;;;5.80;;
75550;SDS011;65071;53.082;18.218;2023-11-22T02:37:37;10.00;;;4.20;;
75550;SDS011;65071;53.082;18.218;2023-11-22T02:42:47;14.80;;;5.70;;
75550;SDS011;65071;53.082;18.218;2023-11-22T02:45:18;12.10;;;5.60;;
75550;SDS011;65071;53.082;18.218;2023-11-22T02:47:46;13.50;;;5.30;;
75550;SDS011;65071;53.082;18.218;2023-11-22T02:50:13;12.40;;;4.30;;
75550;SDS011;65071;53.082;18.218;2023-11-22T02:52:40;16.80;;;6.50;;
75550;SDS011;65071;53.082;18.218;2023-11-22T02:55:08;13.60;;;5.90;;
75550;SDS011;65071;53.082;18.218;2023-11-22T02:57:38;17.40;;;6.80;;
75550;SDS011;65071;53.082;18.218;2023-11-22T03:00:09;13.50;;;5.60;;
75550;SDS011;65071;53.082;18.218;2023-11-22T03:02:39;14.70;;;6.10;;
75550;SDS011;65071;53.082;18.218;2023-11-22T03:05:08;11.20;;;4.20;;
75550;SDS011;65071;53.082;18.218;2023-11-22T03:07:35;18.00;;;5.70;;
75550;SDS011;65071;53.082;18.218;2023-11-22T03:10:02;14.30;;;6.50;;
75550;SDS011;65071;53.082;18.218;2023-11-22T03:12:29;14.30;;;6.10;;
75550;SDS011;65071;53.082;18.218;2023-11-22T03:14:56;14.60;;;5.40;;
75550;SDS011;65071;53.082;18.218;2023-11-22T03:17:27;12.40;;;5.00;;
75550;SDS011;65071;53.082;18.218;2023-11-22T03:19:55;13.90;;;5.20;;
75550;SDS011;65071;53.082;18.218;2023-11-22T03:22:23;14.90;;;7.00;;
75550;SDS011;65071;53.082;18.218;2023-11-22T03:24:50;19.90;;;5.60;;
75550;SDS011;65071;53.082;18.218;2023-11-22T03:27:17;16.00;;;6.80;;
75550;SDS011;65071;53.082;18.218;2023-11-22T03:29:46;16.40;;;6.80;;
75550;SDS011;65071;53.082;18.218;2023-11-22T03:32:12;17.60;;;5.90;;
75550;SDS011;65071;53.082;18.218;2023-11-22T03:34:39;14.10;;;6.00;;
75550;SDS011;65071;53.082;18.218;2023-11-22T03:37:05;15.00;;;6.30;;
75550;SDS011;65071;53.082;18.218;2023-11-22T03:39:33;17.20;;;6.90;;
75550;SDS011;65071;53.082;18.218;2023-11-22T03:42:00;19.60;;;7.30;;
75550;SDS011;65071;53.082;18.218;2023-11-22T03:44:26;18.50;;;7.30;;
75550;SDS011;65071;53.082;18.218;2023-11-22T03:46:53;17.40;;;7.30;;
75550;SDS011;65071;53.082;18.218;2023-11-22T03:49:20;31.40;;;9.00;;
75550;SDS011;65071;53.082;18.218;2023-11-22T03:51:47;34.30;;;9.60;;
75550;SDS011;65071;53.082;18.218;2023-11-22T03:54:13;42.60;;;12.20;;
75550;SDS011;65071;53.082;18.218;2023-11-22T03:56:40;73.80;;;21.90;;
75550;SDS011;65071;53.082;18.218;2023-11-22T03:59:07;45.30;;;15.00;;
75550;SDS011;65071;53.082;18.218;2023-11-22T04:01:34;35.30;;;11.80;;
75550;SDS011;65071;53.082;18.218;2023-11-22T04:04:00;34.10;;;11.80;;
75550;SDS011;65071;53.082;18.218;2023-11-22T04:06:27;30.40;;;11.00;;
75550;SDS011;65071;53.082;18.218;2023-11-22T04:08:54;25.30;;;9.40;;
75550;SDS011;65071;53.082;18.218;2023-11-22T04:11:20;19.00;;;7.00;;
75550;SDS011;65071;53.082;18.218;2023-11-22T04:13:47;19.80;;;8.10;;
75550;SDS011;65071;53.082;18.218;2023-11-22T04:16:14;18.70;;;7.70;;
75550;SDS011;65071;53.082;18.218;2023-11-22T04:18:40;23.70;;;8.50;;
75550;SDS011;65071;53.082;18.218;2023-11-22T04:21:07;19.20;;;7.70;;
75550;SDS011;65071;53.082;18.218;2023-11-22T04:23:35;21.70;;;7.90;;
75550;SDS011;65071;53.082;18.218;2023-11-22T04:26:03;21.50;;;8.10;;
75550;SDS011;65071;53.082;18.218;2023-11-22T04:28:29;19.40;;;7.80;;
75550;SDS011;65071;53.082;18.218;2023-11-22T04:30:56;18.10;;;7.70;;
75550;SDS011;65071;53.082;18.218;2023-11-22T04:33:24;23.10;;;8.20;;
75550;SDS011;65071;53.082;18.218;2023-11-22T04:35:51;20.10;;;8.30;;
75550;SDS011;65071;53.082;18.218;2023-11-22T04:38:17;20.20;;;7.60;;
75550;SDS011;65071;53.082;18.218;2023-11-22T04:40:44;18.90;;;7.40;;
75550;SDS011;65071;53.082;18.218;2023-11-22T04:43:11;21.20;;;7.90;;
75550;SDS011;65071;53.082;18.218;2023-11-22T04:45:38;20.30;;;8.00;;
75550;SDS011;65071;53.082;18.218;2023-11-22T04:48:05;19.10;;;8.30;;
75550;SDS011;65071;53.082;18.218;2023-11-22T04:50:35;21.00;;;7.70;;
75550;SDS011;65071;53.082;18.218;2023-11-22T04:53:02;19.20;;;7.70;;
75550;SDS011;65071;53.082;18.218;2023-11-22T04:55:29;19.80;;;8.00;;
75550;SDS011;65071;53.082;18.218;2023-11-22T04:57:56;22.30;;;9.10;;
75550;SDS011;65071;53.082;18.218;2023-11-22T05:00:22;19.40;;;7.90;;
75550;SDS011;65071;53.082;18.218;2023-11-22T05:02:49;19.60;;;6.90;;
75550;SDS011;65071;53.082;18.218;2023-11-22T05:05:15;22.30;;;9.20;;
75550;SDS011;65071;53.082;18.218;2023-11-22T05:07:43;41.80;;;13.40;;
75550;SDS011;65071;53.082;18.218;2023-11-22T05:10:11;54.40;;;17.90;;
75550;SDS011;65071;53.082;18.218;2023-11-22T05:12:38;32.90;;;12.00;;
75550;SDS011;65071;53.082;18.218;2023-11-22T05:15:05;32.70;;;12.40;;
75550;SDS011;65071;53.082;18.218;2023-11-22T05:17:33;38.90;;;13.40;;
75550;SDS011;65071;53.082;18.218;2023-11-22T05:20:00;25.50;;;10.50;;
75550;SDS011;65071;53.082;18.218;2023-11-22T05:22:27;30.10;;;10.90;;
75550;SDS011;65071;53.082;18.218;2023-11-22T05:24:54;28.00;;;10.70;;
75550;SDS011;65071;53.082;18.218;2023-11-22T05:27:22;28.20;;;10.50;;
75550;SDS011;65071;53.082;18.218;2023-11-22T05:29:48;27.90;;;11.00;;
75550;SDS011;65071;53.082;18.218;2023-11-22T05:32:15;25.60;;;10.80;;
75550;SDS011;65071;53.082;18.218;2023-11-22T05:34:43;38.30;;;11.60;;
75550;SDS011;65071;53.082;18.218;2023-11-22T05:37:10;31.00;;;11.50;;
75550;SDS011;65071;53.082;18.218;2023-11-22T05:39:37;32.10;;;12.70;;
75550;SDS011;65071;53.082;18.218;2023-11-22T05:42:03;32.10;;;12.60;;
75550;SDS011;65071;53.082;18.218;2023-11-22T05:44:30;26.90;;;10.80;;
75550;SDS011;65071;53.082;18.218;2023-11-22T05:46:57;40.00;;;14.90;;
75550;SDS011;65071;53.082;18.218;2023-11-22T05:49:23;38.60;;;13.70;;
75550;SDS011;65071;53.082;18.218;2023-11-22T05:51:50;43.70;;;16.50;;
75550;SDS011;65071;53.082;18.218;2023-11-22T05:54:16;49.20;;;18.00;;
75550;SDS011;65071;53.082;18.218;2023-11-22T05:56:43;52.20;;;19.70;;
75550;SDS011;65071;53.082;18.218;2023-11-22T05:59:09;52.70;;;18.60;;
75550;SDS011;65071;53.082;18.218;2023-11-22T06:01:36;46.50;;;17.60;;
75550;SDS011;65071;53.082;18.218;2023-11-22T06:04:03;45.50;;;18.20;;
75550;SDS011;65071;53.082;18.218;2023-11-22T06:06:30;52.10;;;20.00;;
75550;SDS011;65071;53.082;18.218;2023-11-22T06:08:57;66.60;;;24.70;;
75550;SDS011;65071;53.082;18.218;2023-11-22T06:11:23;88.00;;;29.20;;
75550;SDS011;65071;53.082;18.218;2023-11-22T06:13:51;74.30;;;27.20;;
75550;SDS011;65071;53.082;18.218;2023-11-22T06:16:17;73.50;;;25.60;;
75550;SDS011;65071;53.082;18.218;2023-11-22T06:18:44;71.60;;;25.90;;
75550;SDS011;65071;53.082;18.218;2023-11-22T06:21:11;67.60;;;24.00;;
75550;SDS011;65071;53.082;18.218;2023-11-22T06:23:38;50.90;;;19.40;;
75550;SDS011;65071;53.082;18.218;2023-11-22T06:26:04;42.20;;;16.20;;
75550;SDS011;65071;53.082;18.218;2023-11-22T06:28:32;40.70;;;14.20;;
75550;SDS011;65071;53.082;18.218;2023-11-22T06:30:58;35.70;;;12.10;;
75550;SDS011;65071;53.082;18.218;2023-11-22T06:33:25;45.30;;;16.00;;
75550;SDS011;65071;53.082;18.218;2023-11-22T06:35:51;34.60;;;11.30;;
75550;SDS011;65071;53.082;18.218;2023-11-22T06:38:18;33.00;;;12.80;;
75550;SDS011;65071;53.082;18.218;2023-11-22T06:40:45;33.80;;;13.20;;
75550;SDS011;65071;53.082;18.218;2023-11-22T06:43:12;37.80;;;15.40;;
75550;SDS011;65071;53.082;18.218;2023-11-22T06:45:38;40.70;;;15.10;;
75550;SDS011;65071;53.082;18.218;2023-11-22T06:48:05;41.30;;;16.80;;
75550;SDS011;65071;53.082;18.218;2023-11-22T06:50:31;30.30;;;11.80;;
75550;SDS011;65071;53.082;18.218;2023-11-22T06:52:57;32.60;;;10.70;;
75550;SDS011;65071;53.082;18.218;2023-11-22T06:55:24;53.20;;;18.90;;
75550;SDS011;65071;53.082;18.218;2023-11-22T06:57:51;73.30;;;24.20;;
75550;SDS011;65071;53.082;18.218;2023-11-22T07:00:18;71.40;;;22.90;;
75550;SDS011;65071;53.082;18.218;2023-11-22T07:02:46;64.30;;;21.00;;
75550;SDS011;65071;53.082;18.218;2023-11-22T07:05:12;81.40;;;28.20;;
75550;SDS011;65071;53.082;18.218;2023-11-22T07:07:40;46.80;;;17.40;;
75550;SDS011;65071;53.082;18.218;2023-11-22T07:10:07;33.60;;;13.40;;
75550;SDS011;65071;53.082;18.218;2023-11-22T07:12:34;45.70;;;19.00;;
75550;SDS011;65071;53.082;18.218;2023-11-22T07:15:01;37.60;;;13.10;;
75550;SDS011;65071;53.082;18.218;2023-11-22T07:17:29;59.40;;;22.50;;
75550;SDS011;65071;53.082;18.218;2023-11-22T07:19:56;74.60;;;28.20;;
75550;SDS011;65071;53.082;18.218;2023-11-22T07:22:23;100.50;;;32.60;;
75550;SDS011;65071;53.082;18.218;2023-11-22T07:24:50;118.30;;;40.80;;
75550;SDS011;65071;53.082;18.218;2023-11-22T07:27:17;103.90;;;35.30;;
75550;SDS011;65071;53.082;18.218;2023-11-22T07:29:46;92.80;;;30.70;;
75550;SDS011;65071;53.082;18.218;2023-11-22T07:32:12;75.20;;;27.60;;
75550;SDS011;65071;53.082;18.218;2023-11-22T07:34:39;68.50;;;25.80;;
75550;SDS011;65071;53.082;18.218;2023-11-22T07:37:07;68.70;;;27.80;;
75550;SDS011;65071;53.082;18.218;2023-11-22T07:39:34;76.50;;;29.30;;
75550;SDS011;65071;53.082;18.218;2023-11-22T07:42:02;69.70;;;26.40;;
75550;SDS011;65071;53.082;18.218;2023-11-22T07:44:29;66.10;;;24.30;;
75550;SDS011;65071;53.082;18.218;2023-11-22T07:46:59;41.10;;;14.90;;
75550;SDS011;65071;53.082;18.218;2023-11-22T07:49:26;52.30;;;19.10;;
75550;SDS011;65071;53.082;18.218;2023-11-22T07:51:52;57.60;;;23.50;;
75550;SDS011;65071;53.082;18.218;2023-11-22T07:54:19;54.00;;;21.80;;
75550;SDS011;65071;53.082;18.218;2023-11-22T07:56:51;31.40;;;12.00;;
75550;SDS011;65071;53.082;18.218;2023-11-22T07:59:20;42.10;;;15.10;;
75550;SDS011;65071;53.082;18.218;2023-11-22T08:01:47;31.90;;;14.50;;
75550;SDS011;65071;53.082;18.218;2023-11-22T08:04:15;37.70;;;13.30;;
75550;SDS011;65071;53.082;18.218;2023-11-22T08:09:11;34.00;;;14.40;;
75550;SDS011;65071;53.082;18.218;2023-11-22T08:11:38;35.10;;;12.40;;
75550;SDS011;65071;53.082;18.218;2023-11-22T08:14:05;34.00;;;14.30;;
75550;SDS011;65071;53.082;18.218;2023-11-22T08:16:32;38.60;;;14.80;;
75550;SDS011;65071;53.082;18.218;2023-11-22T08:19:04;35.70;;;14.50;;
75550;SDS011;65071;53.082;18.218;2023-11-22T08:21:31;32.80;;;11.60;;
75550;SDS011;65071;53.082;18.218;2023-11-22T08:23:59;48.60;;;17.80;;
75550;SDS011;65071;53.082;18.218;2023-11-22T08:26:26;54.70;;;18.30;;
75550;SDS011;65071;53.082;18.218;2023-11-22T08:28:54;41.20;;;15.40;;
75550;SDS011;65071;53.082;18.218;2023-11-22T08:31:21;45.20;;;17.30;;
75550;SDS011;65071;53.082;18.218;2023-11-22T08:33:48;45.90;;;17.80;;
75550;SDS011;65071;53.082;18.218;2023-11-22T08:36:14;47.60;;;18.10;;
75550;SDS011;65071;53.082;18.218;2023-11-22T08:38:41;47.50;;;16.90;;
75550;SDS011;65071;53.082;18.218;2023-11-22T08:41:09;38.30;;;11.80;;
75550;SDS011;65071;53.082;18.218;2023-11-22T08:43:40;50.50;;;18.00;;
75550;SDS011;65071;53.082;18.218;2023-11-22T08:46:08;44.60;;;18.00;;
75550;SDS011;65071;53.082;18.218;2023-11-22T08:48:35;47.60;;;18.30;;
75550;SDS011;65071;53.082;18.218;2023-11-22T08:51:02;49.70;;;17.90;;
75550;SDS011;65071;53.082;18.218;2023-11-22T08:53:30;50.00;;;18.90;;
75550;SDS011;65071;53.082;18.218;2023-11-22T08:55:56;52.00;;;19.30;;
75550;SDS011;65071;53.082;18.218;2023-11-22T08:58:23;43.30;;;17.50;;
75550;SDS011;65071;53.082;18.218;2023-11-22T09:00:52;38.50;;;15.60;;
75550;SDS011;65071;53.082;18.218;2023-11-22T09:03:20;42.10;;;13.90;;
75550;SDS011;65071;53.082;18.218;2023-11-22T09:05:46;43.90;;;18.10;;
75550;SDS011;65071;53.082;18.218;2023-11-22T09:08:13;37.90;;;15.80;;
75550;SDS011;65071;53.082;18.218;2023-11-22T09:10:42;25.90;;;9.70;;
75550;SDS011;65071;53.082;18.218;2023-11-22T09:13:08;28.50;;;12.10;;
75550;SDS011;65071;53.082;18.218;2023-11-22T09:15:35;29.50;;;11.30;;
75550;SDS011;65071;53.082;18.218;2023-11-22T09:18:02;17.70;;;7.90;;
75550;SDS011;65071;53.082;18.218;2023-11-22T09:20:29;21.40;;;9.60;;
75550;SDS011;65071;53.082;18.218;2023-11-22T09:22:56;16.70;;;7.70;;
75550;SDS011;65071;53.082;18.218;2023-11-22T09:25:23;12.80;;;6.70;;
75550;SDS011;65071;53.082;18.218;2023-11-22T09:27:51;14.10;;;6.20;;
75550;SDS011;65071;53.082;18.218;2023-11-22T09:30:22;14.30;;;6.60;;
75550;SDS011;65071;53.082;18.218;2023-11-22T09:33:02;14.20;;;6.70;;
75550;SDS011;65071;53.082;18.218;2023-11-22T09:35:30;12.20;;;5.80;;
75550;SDS011;65071;53.082;18.218;2023-11-22T09:38:01;11.00;;;5.70;;
75550;SDS011;65071;53.082;18.218;2023-11-22T09:40:30;13.30;;;6.10;;
75550;SDS011;65071;53.082;18.218;2023-11-22T09:42:58;12.10;;;5.90;;
75550;SDS011;65071;53.082;18.218;2023-11-22T09:45:28;12.90;;;6.70;;
75550;SDS011;65071;53.082;18.218;2023-11-22T09:47:56;9.90;;;5.50;;
75550;SDS011;65071;53.082;18.218;2023-11-22T09:50:27;11.70;;;6.10;;
75550;SDS011;65071;53.082;18.218;2023-11-22T09:53:01;10.00;;;4.80;;
75550;SDS011;65071;53.082;18.218;2023-11-22T09:55:35;10.20;;;5.10;;
75550;SDS011;65071;53.082;18.218;2023-11-22T09:58:02;9.50;;;4.30;;
75550;SDS011;65071;53.082;18.218;2023-11-22T10:00:29;10.90;;;5.80;;
75550;SDS011;65071;53.082;18.218;2023-11-22T10:02:57;7.20;;;3.60;;
75550;SDS011;65071;53.082;18.218;2023-11-22T10:05:24;9.10;;;4.80;;
75550;SDS011;65071;53.082;18.218;2023-11-22T10:07:54;10.00;;;4.80;;
75550;SDS011;65071;53.082;18.218;2023-11-22T10:10:22;8.60;;;3.80;;
75550;SDS011;65071;53.082;18.218;2023-11-22T10:12:53;11.10;;;5.10;;
75550;SDS011;65071;53.082;18.218;2023-11-22T10:15:22;8.90;;;4.50;;
75550;SDS011;65071;53.082;18.218;2023-11-22T10:17:56;9.50;;;5.10;;
75550;SDS011;65071;53.082;18.218;2023-11-22T10:20:36;8.40;;;4.50;;
75550;SDS011;65071;53.082;18.218;2023-11-22T10:23:08;11.20;;;5.60;;
75550;SDS011;65071;53.082;18.218;2023-11-22T10:25:36;9.50;;;4.80;;
75550;SDS011;65071;53.082;18.218;2023-11-22T10:28:09;8.60;;;4.50;;
75550;SDS011;65071;53.082;18.218;2023-11-22T10:30:36;8.00;;;4.30;;
75550;SDS011;65071;53.082;18.218;2023-11-22T10:33:02;8.80;;;4.60;;
75550;SDS011;65071;53.082;18.218;2023-11-22T10:35:29;9.00;;;5.10;;
75550;SDS011;65071;53.082;18.218;2023-11-22T10:37:55;11.00;;;5.40;;
75550;SDS011;65071;53.082;18.218;2023-11-22T10:40:23;9.60;;;5.10;;
75550;SDS011;65071;53.082;18.218;2023-11-22T10:42:50;10.40;;;5.20;;
75550;SDS011;65071;53.082;18.218;2023-11-22T10:45:19;17.20;;;7.50;;
75550;SDS011;65071;53.082;18.218;2023-11-22T10:47:46;12.10;;;6.20;;
75550;SDS011;65071;53.082;18.218;2023-11-22T10:50:13;9.40;;;5.00;;
75550;SDS011;65071;53.082;18.218;2023-11-22T10:52:40;10.90;;;5.70;;
75550;SDS011;65071;53.082;18.218;2023-11-22T10:55:11;9.70;;;4.40;;
75550;SDS011;65071;53.082;18.218;2023-11-22T10:57:44;11.80;;;5.80;;
75550;SDS011;65071;53.082;18.218;2023-11-22T11:00:15;12.10;;;5.90;;
75550;SDS011;65071;53.082;18.218;2023-11-22T11:02:44;11.20;;;5.80;;
75550;SDS011;65071;53.082;18.218;2023-11-22T11:05:21;8.50;;;4.20;;
75550;SDS011;65071;53.082;18.218;2023-11-22T11:07:56;14.00;;;6.10;;
75550;SDS011;65071;53.082;18.218;2023-11-22T11:10:27;11.80;;;5.80;;
75550;SDS011;65071;53.082;18.218;2023-11-22T11:12:58;14.30;;;6.50;;
75550;SDS011;65071;53.082;18.218;2023-11-22T11:15:25;13.70;;;6.20;;
75550;SDS011;65071;53.082;18.218;2023-11-22T11:17:53;12.70;;;6.00;;
75550;SDS011;65071;53.082;18.218;2023-11-22T11:20:22;12.00;;;6.30;;
75550;SDS011;65071;53.082;18.218;2023-11-22T11:22:49;14.00;;;6.20;;
75550;SDS011;65071;53.082;18.218;2023-11-22T11:25:18;16.60;;;7.40;;
75550;SDS011;65071;53.082;18.218;2023-11-22T11:27:45;19.10;;;8.10;;
75550;SDS011;65071;53.082;18.218;2023-11-22T11:33:15;15.30;;;6.40;;
75550;SDS011;65071;53.082;18.218;2023-11-22T11:35:46;14.80;;;6.90;;
75550;SDS011;65071;53.082;18.218;2023-11-22T11:38:15;15.00;;;6.90;;
75550;SDS011;65071;53.082;18.218;2023-11-22T11:40:53;14.30;;;7.50;;
75550;SDS011;65071;53.082;18.218;2023-11-22T11:43:21;12.70;;;6.10;;
75550;SDS011;65071;53.082;18.218;2023-11-22T11:46:06;12.40;;;6.00;;
75550;SDS011;65071;53.082;18.218;2023-11-22T11:48:34;13.30;;;6.60;;
75550;SDS011;65071;53.082;18.218;2023-11-22T11:51:01;10.10;;;5.40;;
75550;SDS011;65071;53.082;18.218;2023-11-22T11:53:28;8.30;;;4.40;;
75550;SDS011;65071;53.082;18.218;2023-11-22T11:55:57;7.40;;;4.40;;
75550;SDS011;65071;53.082;18.218;2023-11-22T11:58:24;8.10;;;4.90;;
75550;SDS011;65071;53.082;18.218;2023-11-22T12:00:54;9.90;;;5.10;;
75550;SDS011;65071;53.082;18.218;2023-11-22T12:03:22;11.40;;;5.40;;
75550;SDS011;65071;53.082;18.218;2023-11-22T12:05:49;16.50;;;7.30;;
75550;SDS011;65071;53.082;18.218;2023-11-22T12:08:16;17.10;;;7.40;;
75550;SDS011;65071;53.082;18.218;2023-11-22T12:10:43;9.60;;;5.00;;
75550;SDS011;65071;53.082;18.218;2023-11-22T12:13:10;10.00;;;4.80;;
75550;SDS011;65071;53.082;18.218;2023-11-22T12:15:37;9.30;;;5.00;;
75550;SDS011;65071;53.082;18.218;2023-11-22T12:18:03;7.70;;;4.30;;
75550;SDS011;65071;53.082;18.218;2023-11-22T12:20:30;7.30;;;3.80;;
75550;SDS011;65071;53.082;18.218;2023-11-22T12:22:59;7.90;;;4.40;;
75550;SDS011;65071;53.082;18.218;2023-11-22T12:25:28;8.50;;;3.80;;
75550;SDS011;65071;53.082;18.218;2023-11-22T12:27:54;8.00;;;3.80;;
75550;SDS011;65071;53.082;18.218;2023-11-22T12:30:31;8.60;;;4.80;;
75550;SDS011;65071;53.082;18.218;2023-11-22T12:33:04;8.90;;;3.80;;
75550;SDS011;65071;53.082;18.218;2023-11-22T12:35:32;9.30;;;4.90;;
75550;SDS011;65071;53.082;18.218;2023-11-22T12:38:00;10.20;;;5.80;;
75550;SDS011;65071;53.082;18.218;2023-11-22T12:40:28;10.40;;;5.60;;
75550;SDS011;65071;53.082;18.218;2023-11-22T12:42:57;8.00;;;4.20;;
75550;SDS011;65071;53.082;18.218;2023-11-22T12:45:25;10.20;;;5.30;;
75550;SDS011;65071;53.082;18.218;2023-11-22T12:50:30;10.50;;;5.00;;
75550;SDS011;65071;53.082;18.218;2023-11-22T12:52:59;11.00;;;5.10;;
75550;SDS011;65071;53.082;18.218;2023-11-22T12:55:26;9.60;;;4.90;;
75550;SDS011;65071;53.082;18.218;2023-11-22T12:57:57;11.70;;;5.50;;
75550;SDS011;65071;53.082;18.218;2023-11-22T13:00:25;10.90;;;5.50;;
75550;SDS011;65071;53.082;18.218;2023-11-22T13:02:52;10.00;;;5.20;;
75550;SDS011;65071;53.082;18.218;2023-11-22T13:05:19;12.00;;;6.30;;
75550;SDS011;65071;53.082;18.218;2023-11-22T13:07:45;11.80;;;5.60;;
75550;SDS011;65071;53.082;18.218;2023-11-22T13:10:12;14.10;;;6.40;;
75550;SDS011;65071;53.082;18.218;2023-11-22T13:12:39;10.60;;;5.60;;
75550;SDS011;65071;53.082;18.218;2023-11-22T13:15:05;11.70;;;5.50;;
75550;SDS011;65071;53.082;18.218;2023-11-22T13:17:32;9.00;;;5.30;;
75550;SDS011;65071;53.082;18.218;2023-11-22T13:19:59;10.80;;;6.00;;
75550;SDS011;65071;53.082;18.218;2023-11-22T13:22:26;10.30;;;4.80;;
75550;SDS011;65071;53.082;18.218;2023-11-22T13:24:53;11.10;;;5.60;;
75550;SDS011;65071;53.082;18.218;2023-11-22T13:27:20;9.70;;;5.50;;
75550;SDS011;65071;53.082;18.218;2023-11-22T13:29:46;12.80;;;6.30;;
75550;SDS011;65071;53.082;18.218;2023-11-22T13:32:13;9.50;;;5.40;;
75550;SDS011;65071;53.082;18.218;2023-11-22T13:34:39;13.30;;;6.50;;
75550;SDS011;65071;53.082;18.218;2023-11-22T13:37:06;10.50;;;5.80;;
75550;SDS011;65071;53.082;18.218;2023-11-22T13:39:32;10.30;;;5.80;;
75550;SDS011;65071;53.082;18.218;2023-11-22T13:41:59;13.70;;;7.10;;
75550;SDS011;65071;53.082;18.218;2023-11-22T13:44:26;13.10;;;6.50;;
75550;SDS011;65071;53.082;18.218;2023-11-22T13:46:52;10.20;;;5.30;;
75550;SDS011;65071;53.082;18.218;2023-11-22T13:49:19;12.70;;;6.10;;
75550;SDS011;65071;53.082;18.218;2023-11-22T13:51:46;11.10;;;5.70;;
75550;SDS011;65071;53.082;18.218;2023-11-22T13:54:14;12.90;;;5.70;;
75550;SDS011;65071;53.082;18.218;2023-11-22T13:56:40;10.60;;;5.00;;
75550;SDS011;65071;53.082;18.218;2023-11-22T13:59:06;10.90;;;5.60;;
75550;SDS011;65071;53.082;18.218;2023-11-22T14:01:33;10.80;;;5.50;;
75550;SDS011;65071;53.082;18.218;2023-11-22T14:04:00;12.80;;;6.30;;
75550;SDS011;65071;53.082;18.218;2023-11-22T14:06:28;12.20;;;5.80;;
75550;SDS011;65071;53.082;18.218;2023-11-22T14:08:55;11.80;;;5.40;;
75550;SDS011;65071;53.082;18.218;2023-11-22T14:11:22;13.70;;;6.10;;
75550;SDS011;65071;53.082;18.218;2023-11-22T14:13:48;9.20;;;4.60;;
75550;SDS011;65071;53.082;18.218;2023-11-22T14:16:15;13.50;;;6.40;;
75550;SDS011;65071;53.082;18.218;2023-11-22T14:18:41;12.70;;;5.60;;
75550;SDS011;65071;53.082;18.218;2023-11-22T14:21:07;12.00;;;5.50;;
75550;SDS011;65071;53.082;18.218;2023-11-22T14:23:34;11.80;;;5.80;;
75550;SDS011;65071;53.082;18.218;2023-11-22T14:26:00;13.40;;;6.80;;
75550;SDS011;65071;53.082;18.218;2023-11-22T14:28:26;16.90;;;7.40;;
75550;SDS011;65071;53.082;18.218;2023-11-22T14:30:52;15.40;;;7.50;;
75550;SDS011;65071;53.082;18.218;2023-11-22T14:33:20;17.80;;;8.10;;